KTPF/TPF METAR and TAF weather

Enter ICAO airport designator
Station Type Date Time Source
KTPF METAR 2019/06/18 17:15 UTC NOAA

KTPF 181715Z AUTO 22008G18KT 10SM OVC028 30/26 A3003 RMK AO2


Station Type Date Time Source
KTPF Decoded METAR 2019/06/18 17:15 UTC NOAA

Tampa, Peter O Knight Airport, FL, United States (KTPF) 27-54-56N 082-26-57W
Jun 18, 2019 - 01:15 PM EDT / 2019.06.18 1715 UTC
Wind: from the SW (220 degrees) at 9 MPH (8 KT) gusting to 21 MPH (18 KT):0
Visibility: 10 mile(s):0
Sky conditions: overcast
Temperature: 86 F (30 C)
Heat index: 99.3 F (37.4 C):1
Dew Point: 78 F (26 C)
Relative Humidity: 79%
Pressure (altimeter): 30.03 in. Hg (1016 hPa)
ob: KTPF 181715Z AUTO 22008G18KT 10SM OVC028 30/26 A3003 RMK AO2
cycle: 17

Station Type Date Time Source
KTPF TAF UTC NOAA

Error!

Example: see airport list